createdAt,value
2023-01-01T00:00:38.864Z,6.67
2023-01-01T00:01:38.869Z,6.66
2023-01-01T00:02:38.831Z,6.63
2023-01-01T00:03:38.840Z,6.66
2023-01-01T00:04:38.774Z,6.62
2023-01-01T00:05:38.753Z,6.57
2023-01-01T00:06:38.766Z,6.54
2023-01-01T00:07:38.751Z,6.54
2023-01-01T00:08:38.729Z,6.54
2023-01-01T00:09:38.709Z,6.54
2023-01-01T00:10:38.708Z,6.56
2023-01-01T00:11:38.717Z,6.57
2023-01-01T00:12:38.673Z,6.57
2023-01-01T00:13:38.655Z,6.60
2023-01-01T00:14:38.651Z,6.62
2023-01-01T00:15:38.634Z,6.62
2023-01-01T00:16:38.820Z,6.63
2023-01-01T00:17:38.617Z,6.66
2023-01-01T00:18:38.588Z,6.67
2023-01-01T00:19:38.590Z,6.72
2023-01-01T00:20:38.560Z,6.74
2023-01-01T00:21:38.556Z,6.72
2023-01-01T00:22:55.830Z,6.75
2023-01-01T00:23:39.557Z,6.72
2023-01-01T00:24:38.511Z,6.77
2023-01-01T00:25:38.499Z,6.75
2023-01-01T00:26:38.482Z,6.77
2023-01-01T00:27:38.471Z,6.79
2023-01-01T00:28:38.457Z,6.79
2023-01-01T00:29:38.435Z,6.81
2023-01-01T00:30:38.422Z,6.85
2023-01-01T00:31:38.427Z,6.88
2023-01-01T00:32:38.404Z,6.92
2023-01-01T00:33:38.392Z,6.95
2023-01-01T00:34:38.369Z,6.93
2023-01-01T00:35:38.386Z,6.93
2023-01-01T00:36:38.352Z,6.95
2023-01-01T00:37:43.279Z,6.96
2023-01-01T00:38:39.360Z,6.97
2023-01-01T00:39:38.315Z,6.95
2023-01-01T00:40:38.306Z,6.87
2023-01-01T00:41:38.283Z,6.89
2023-01-01T00:42:38.283Z,6.89
2023-01-01T00:43:38.262Z,6.85
2023-01-01T00:44:38.240Z,6.82
2023-01-01T00:45:38.289Z,6.84
2023-01-01T00:46:38.216Z,6.82
2023-01-01T00:47:38.208Z,6.81
2023-01-01T00:48:38.186Z,6.79
2023-01-01T00:49:38.173Z,6.78
2023-01-01T00:50:38.158Z,6.77
2023-01-01T00:51:38.171Z,6.79
2023-01-01T00:52:38.138Z,6.75
2023-01-01T00:53:38.122Z,6.72
2023-01-01T00:54:38.118Z,6.72
2023-01-01T00:55:38.102Z,6.70
2023-01-01T00:56:38.098Z,6.69
2023-01-01T00:57:38.076Z,6.70
2023-01-01T00:58:38.062Z,6.67
2023-01-01T00:59:38.068Z,6.66
2023-01-01T01:00:38.038Z,6.64
2023-01-01T01:01:38.120Z,6.67
2023-01-01T01:02:38.244Z,6.74
2023-01-01T01:03:37.999Z,6.78
2023-01-01T01:04:37.986Z,6.79
2023-01-01T01:05:37.981Z,6.79
2023-01-01T01:06:37.959Z,6.84
2023-01-01T01:07:37.973Z,6.89
2023-01-01T01:08:37.932Z,7.03
2023-01-01T01:09:37.923Z,7.15
2023-01-01T01:10:37.915Z,7.21
2023-01-01T01:11:37.896Z,7.29
2023-01-01T01:12:37.886Z,7.32
2023-01-01T01:13:37.860Z,7.33
2023-01-01T01:14:37.854Z,7.42
2023-01-01T01:15:37.835Z,7.50
2023-01-01T01:16:37.858Z,7.50
2023-01-01T01:17:37.837Z,7.51
2023-01-01T01:18:37.827Z,7.47
2023-01-01T01:19:37.791Z,7.38
2023-01-01T01:20:37.770Z,7.32
2023-01-01T01:21:37.777Z,7.24
2023-01-01T01:22:37.750Z,7.15
2023-01-01T01:23:37.760Z,7.05
2023-01-01T01:24:37.729Z,7.02
2023-01-01T01:25:37.709Z,6.97
2023-01-01T01:26:37.689Z,6.96
2023-01-01T01:27:37.688Z,6.93
2023-01-01T01:28:37.678Z,6.92
2023-01-01T01:29:37.657Z,6.88
2023-01-01T01:30:37.711Z,6.87
2023-01-01T01:31:37.637Z,6.87
2023-01-01T01:32:37.619Z,6.84
2023-01-01T01:33:37.600Z,6.79
2023-01-01T01:34:37.592Z,6.77
2023-01-01T01:35:37.575Z,6.70
2023-01-01T01:36:37.558Z,6.66
2023-01-01T01:37:37.546Z,6.63
2023-01-01T01:38:37.538Z,6.59
2023-01-01T01:39:37.556Z,6.56
2023-01-01T01:40:37.517Z,6.54
2023-01-01T01:41:37.497Z,6.49
2023-01-01T01:42:37.488Z,6.46
2023-01-01T01:43:37.475Z,6.44
2023-01-01T01:44:37.461Z,6.42
2023-01-01T01:45:37.444Z,6.39
2023-01-01T01:46:37.448Z,6.36
2023-01-01T01:47:37.434Z,6.30
2023-01-01T01:48:37.411Z,6.28
2023-01-01T01:49:37.391Z,6.26
2023-01-01T01:50:37.383Z,6.22
2023-01-01T01:51:37.376Z,6.17
2023-01-01T01:52:37.357Z,6.09
2023-01-01T01:53:37.346Z,6.08
2023-01-01T01:54:37.328Z,6.07
2023-01-01T01:55:37.346Z,6.04
2023-01-01T01:56:37.316Z,6.02
2023-01-01T01:57:37.302Z,6.01
2023-01-01T01:58:37.274Z,6.05
2023-01-01T01:59:37.268Z,6.07
2023-01-01T02:00:37.253Z,6.07
2023-01-01T02:01:37.449Z,6.07
2023-01-01T02:02:37.351Z,6.09
2023-01-01T02:03:37.212Z,6.14
2023-01-01T02:04:37.211Z,6.19
2023-01-01T02:05:37.201Z,6.19
2023-01-01T02:06:37.177Z,6.16
2023-01-01T02:07:37.161Z,6.11
2023-01-01T02:08:37.165Z,6.04
2023-01-01T02:09:37.135Z,6.01
2023-01-01T02:10:37.145Z,5.99
2023-01-01T02:11:37.128Z,5.97
2023-01-01T02:12:37.109Z,5.93
2023-01-01T02:13:37.078Z,5.91
2023-01-01T02:14:37.081Z,5.91
2023-01-01T02:15:37.087Z,5.91
2023-01-01T02:16:37.047Z,5.90
2023-01-01T02:17:39.385Z,5.91
2023-01-01T02:18:37.023Z,5.91
2023-01-01T02:19:37.011Z,5.87
2023-01-01T02:20:36.995Z,5.86
2023-01-01T02:21:36.980Z,5.83
2023-01-01T02:22:36.965Z,5.84
2023-01-01T02:23:36.964Z,5.87
2023-01-01T02:24:36.931Z,5.94
2023-01-01T02:25:36.926Z,5.94
2023-01-01T02:26:36.927Z,5.98
2023-01-01T02:27:36.934Z,5.97
2023-01-01T02:28:36.880Z,5.94
2023-01-01T02:29:36.876Z,5.97
2023-01-01T02:30:36.888Z,6.01
2023-01-01T02:31:36.941Z,5.99
2023-01-01T02:32:36.837Z,5.99
2023-01-01T02:33:36.829Z,5.99
2023-01-01T02:34:36.813Z,6.02
2023-01-01T02:35:36.799Z,6.04
2023-01-01T02:36:36.798Z,6.08
2023-01-01T02:37:36.768Z,6.09
2023-01-01T02:38:36.764Z,6.11
2023-01-01T02:39:36.736Z,6.12
2023-01-01T02:40:36.731Z,6.12
2023-01-01T02:41:36.737Z,6.14
2023-01-01T02:42:36.695Z,6.14
2023-01-01T02:43:36.705Z,6.12
2023-01-01T02:44:36.681Z,6.16
2023-01-01T02:45:36.680Z,6.19
2023-01-01T02:46:36.652Z,6.24
2023-01-01T02:47:36.641Z,6.27
2023-01-01T02:48:36.643Z,6.27
2023-01-01T02:49:36.612Z,6.28
2023-01-01T02:50:36.595Z,6.27
2023-01-01T02:51:36.590Z,6.26
2023-01-01T02:52:36.581Z,6.24
2023-01-01T02:53:36.574Z,6.22
2023-01-01T02:54:36.555Z,6.26
2023-01-01T02:55:36.535Z,6.27
2023-01-01T02:56:36.525Z,6.27
2023-01-01T02:57:36.524Z,6.27
2023-01-01T02:58:36.512Z,6.28
2023-01-01T02:59:36.512Z,6.26
2023-01-01T03:00:36.471Z,6.26
2023-01-01T03:01:36.585Z,6.27
2023-01-01T03:02:36.507Z,6.28
2023-01-01T03:03:36.462Z,6.30
2023-01-01T03:04:36.410Z,6.31
2023-01-01T03:05:36.403Z,6.28
2023-01-01T03:06:36.385Z,6.20
2023-01-01T03:07:36.399Z,6.20
2023-01-01T03:08:36.366Z,6.22
2023-01-01T03:09:36.360Z,6.22
2023-01-01T03:10:36.336Z,6.28
2023-01-01T03:11:36.329Z,6.33
2023-01-01T03:12:36.340Z,6.35
2023-01-01T03:13:36.298Z,6.36
2023-01-01T03:14:36.294Z,6.35
2023-01-01T03:15:36.329Z,6.39
2023-01-01T03:16:36.310Z,6.39
2023-01-01T03:17:36.255Z,6.41
2023-01-01T03:18:36.242Z,6.42
2023-01-01T03:19:36.231Z,6.42
2023-01-01T03:20:36.216Z,6.38
2023-01-01T03:21:36.189Z,6.36
2023-01-01T03:23:14.165Z,6.31
2023-01-01T03:24:14.175Z,6.28
2023-01-01T03:25:14.151Z,6.27
2023-01-01T03:26:14.127Z,6.26
2023-01-01T03:27:14.119Z,6.26
2023-01-01T03:28:14.109Z,6.24
2023-01-01T03:29:14.097Z,6.22
2023-01-01T03:30:14.094Z,6.22
2023-01-01T03:31:14.151Z,6.24
2023-01-01T03:32:14.049Z,6.24
2023-01-01T03:33:14.043Z,6.24
2023-01-01T03:34:14.024Z,6.24
2023-01-01T03:35:14.021Z,6.24
2023-01-01T03:36:13.996Z,6.24
2023-01-01T03:37:13.989Z,6.22
2023-01-01T03:38:13.978Z,6.22
2023-01-01T03:39:13.971Z,6.20
2023-01-01T03:40:13.953Z,6.17
2023-01-01T03:41:13.932Z,6.17
2023-01-01T03:42:13.940Z,6.16
2023-01-01T03:43:13.933Z,6.12
2023-01-01T03:44:13.910Z,6.09
2023-01-01T03:45:13.905Z,6.09
2023-01-01T03:46:13.960Z,6.09
2023-01-01T03:47:13.900Z,6.07
2023-01-01T03:48:13.843Z,6.05
2023-01-01T03:49:13.842Z,6.07
2023-01-01T03:50:13.826Z,6.05
2023-01-01T03:51:13.812Z,6.02
2023-01-01T03:52:13.792Z,6.01
2023-01-01T03:53:13.790Z,5.97
2023-01-01T03:54:13.772Z,5.98
2023-01-01T03:55:13.750Z,5.98
2023-01-01T03:56:13.740Z,5.97
2023-01-01T03:57:13.736Z,5.94
2023-01-01T03:58:13.721Z,5.93
2023-01-01T03:59:13.699Z,5.90
2023-01-01T04:00:13.698Z,5.87
2023-01-01T04:01:13.720Z,5.84
2023-01-01T04:02:13.724Z,5.83
2023-01-01T04:03:13.737Z,5.82
2023-01-01T04:04:13.679Z,5.80
2023-01-01T04:05:13.645Z,5.82
2023-01-01T04:06:13.612Z,5.82
2023-01-01T04:07:15.665Z,5.83
2023-01-01T04:08:13.583Z,5.86
2023-01-01T04:09:13.584Z,5.84
2023-01-01T04:10:13.569Z,5.83
2023-01-01T04:11:13.555Z,5.82
2023-01-01T04:12:13.542Z,5.83
2023-01-01T04:13:13.533Z,5.84
2023-01-01T04:14:13.506Z,5.84
2023-01-01T04:15:13.500Z,5.86
2023-01-01T04:16:13.539Z,5.84
2023-01-01T04:17:13.501Z,5.84
2023-01-01T04:18:13.470Z,5.82
2023-01-01T04:19:13.467Z,5.82
2023-01-01T04:20:13.428Z,5.80
2023-01-01T04:21:13.415Z,5.80
2023-01-01T04:22:13.423Z,5.76
2023-01-01T04:23:13.394Z,5.76
2023-01-01T04:24:13.387Z,5.82
2023-01-01T04:25:13.371Z,5.86
2023-01-01T04:26:13.359Z,5.87
2023-01-01T04:27:13.356Z,5.90
2023-01-01T04:28:13.328Z,5.91
2023-01-01T04:29:13.313Z,5.94
2023-01-01T04:30:13.310Z,5.98
2023-01-01T04:31:13.297Z,6.01
2023-01-01T04:32:13.281Z,6.01
2023-01-01T04:33:13.278Z,6.02
2023-01-01T04:34:13.250Z,6.02
2023-01-01T04:35:13.267Z,5.99
2023-01-01T04:36:13.232Z,5.99
2023-01-01T04:37:13.809Z,6.01
2023-01-01T04:38:13.193Z,6.04
2023-01-01T04:39:13.185Z,6.07
2023-01-01T04:40:13.177Z,6.12
2023-01-01T04:41:13.164Z,6.16
2023-01-01T04:42:13.143Z,6.17
2023-01-01T04:43:13.145Z,6.17
2023-01-01T04:44:13.123Z,6.17
2023-01-01T04:45:13.106Z,6.16
2023-01-01T04:46:13.154Z,6.17
2023-01-01T04:47:13.082Z,6.19
2023-01-01T04:48:13.069Z,6.27
2023-01-01T04:49:13.059Z,6.31
2023-01-01T04:50:13.049Z,6.31
2023-01-01T04:51:13.078Z,6.35
2023-01-01T04:52:13.018Z,6.38
2023-01-01T04:53:13.012Z,6.39
2023-01-01T04:54:13.009Z,6.41
2023-01-01T04:55:12.985Z,6.44
2023-01-01T04:56:12.970Z,6.51
2023-01-01T04:57:12.950Z,6.62
2023-01-01T04:58:12.944Z,6.67
2023-01-01T04:59:12.934Z,6.82
2023-01-01T05:00:12.910Z,6.93
2023-01-01T05:01:13.009Z,6.96
2023-01-01T05:02:13.020Z,6.99
2023-01-01T05:03:12.873Z,6.99
2023-01-01T05:04:12.875Z,7.00
2023-01-01T05:05:12.854Z,7.02
2023-01-01T05:06:12.836Z,7.02
2023-01-01T05:07:12.851Z,7.02
2023-01-01T05:08:12.809Z,7.02
2023-01-01T05:09:12.794Z,7.02
2023-01-01T05:10:12.778Z,7.00
2023-01-01T05:11:12.766Z,7.00
2023-01-01T05:12:12.758Z,6.99
2023-01-01T05:13:12.741Z,6.96
2023-01-01T05:14:12.741Z,6.92
2023-01-01T05:15:12.724Z,6.88
2023-01-01T05:16:12.732Z,6.81
2023-01-01T05:17:12.731Z,6.74
2023-01-01T05:18:12.679Z,6.64
2023-01-01T05:19:12.664Z,6.59
2023-01-01T05:20:12.659Z,6.56
2023-01-01T05:21:12.655Z,6.54
2023-01-01T05:22:12.635Z,6.49
2023-01-01T05:23:12.633Z,6.48
2023-01-01T05:24:12.610Z,6.46
2023-01-01T05:25:12.588Z,6.45
2023-01-01T05:26:12.585Z,6.42
2023-01-01T05:27:12.560Z,6.36
2023-01-01T05:28:12.571Z,6.33
2023-01-01T05:29:16.519Z,6.24
2023-01-01T05:30:12.533Z,6.16
2023-01-01T05:31:12.534Z,6.08
2023-01-01T05:32:49.523Z,6.04
2023-01-01T05:33:49.524Z,5.94
2023-01-01T05:34:49.517Z,5.86
2023-01-01T05:35:49.493Z,5.79
2023-01-01T05:36:49.494Z,5.71
2023-01-01T05:37:49.478Z,5.65
2023-01-01T05:38:49.588Z,5.62
2023-01-01T05:39:49.444Z,5.53
2023-01-01T05:40:49.429Z,5.46
2023-01-01T05:41:49.420Z,5.43
2023-01-01T05:42:49.409Z,5.39
2023-01-01T05:43:49.393Z,5.32
2023-01-01T05:44:49.375Z,5.23
2023-01-01T05:45:49.442Z,5.20
2023-01-01T05:46:49.355Z,5.15
2023-01-01T05:47:49.330Z,5.11
2023-01-01T05:48:49.329Z,5.07
2023-01-01T05:49:49.301Z,5.04
2023-01-01T05:50:49.289Z,5.02
2023-01-01T05:51:49.297Z,5.00
2023-01-01T05:52:49.272Z,4.94
2023-01-01T05:53:49.257Z,4.89
2023-01-01T05:54:49.268Z,4.80
2023-01-01T05:55:49.234Z,4.71
2023-01-01T05:56:49.216Z,4.66
2023-01-01T05:57:49.207Z,4.63
2023-01-01T05:58:49.195Z,4.63
2023-01-01T05:59:49.181Z,4.62
2023-01-01T06:00:49.160Z,4.63
2023-01-01T06:01:49.216Z,4.67
2023-01-01T06:02:49.189Z,4.71
2023-01-01T06:03:49.211Z,4.73
2023-01-01T06:04:49.167Z,4.71
2023-01-01T06:05:49.103Z,4.74
2023-01-01T06:06:49.093Z,4.75
2023-01-01T06:07:49.089Z,4.77
2023-01-01T06:08:49.069Z,4.75
2023-01-01T06:09:49.046Z,4.77
2023-01-01T06:10:49.060Z,4.77
2023-01-01T06:11:49.027Z,4.78
2023-01-01T06:12:49.013Z,4.82
2023-01-01T06:13:49.006Z,4.78
2023-01-01T06:14:48.983Z,4.82
2023-01-01T06:15:48.974Z,4.87
2023-01-01T06:16:49.100Z,4.90
2023-01-01T06:17:48.952Z,4.80
2023-01-01T06:18:48.930Z,4.82
2023-01-01T06:19:48.916Z,4.84
2023-01-01T06:20:48.903Z,4.84
2023-01-01T06:21:48.908Z,4.87
2023-01-01T06:22:48.885Z,4.94
2023-01-01T06:23:48.875Z,4.97
2023-01-01T06:24:48.863Z,5.02
2023-01-01T06:25:48.865Z,5.05
2023-01-01T06:26:48.855Z,5.08
2023-01-01T06:27:48.824Z,5.17
2023-01-01T06:28:48.810Z,5.18
2023-01-01T06:29:48.791Z,5.23
2023-01-01T06:30:48.826Z,5.29
2023-01-01T06:31:48.780Z,5.33
2023-01-01T06:32:48.759Z,5.43
2023-01-01T06:33:48.753Z,5.46
2023-01-01T06:34:48.728Z,5.47
2023-01-01T06:35:48.711Z,5.50
2023-01-01T06:36:48.707Z,5.53
2023-01-01T06:37:48.692Z,5.56
2023-01-01T06:38:48.679Z,5.59
2023-01-01T06:39:48.670Z,5.62
2023-01-01T06:40:48.653Z,5.59
2023-01-01T06:41:48.644Z,5.59
2023-01-01T06:42:48.656Z,5.56
2023-01-01T06:43:48.626Z,5.53
2023-01-01T06:44:48.604Z,5.44
2023-01-01T06:45:48.677Z,5.39
2023-01-01T06:46:48.583Z,5.32
2023-01-01T06:47:48.571Z,5.26
2023-01-01T06:48:48.546Z,5.20
2023-01-01T06:49:48.529Z,5.15
2023-01-01T06:50:48.528Z,5.14
2023-01-01T06:51:48.517Z,5.10
2023-01-01T06:52:48.501Z,5.04
2023-01-01T06:53:48.492Z,5.04
2023-01-01T06:54:48.468Z,5.05
2023-01-01T06:55:53.390Z,5.05
2023-01-01T06:56:49.491Z,5.00
2023-01-01T06:57:48.430Z,5.04
2023-01-01T06:58:48.436Z,5.02
2023-01-01T06:59:48.410Z,5.00
2023-01-01T07:00:48.395Z,4.97
2023-01-01T07:01:48.560Z,4.93
2023-01-01T07:02:48.610Z,4.92
2023-01-01T07:03:48.364Z,4.92
2023-01-01T07:04:48.338Z,4.93
2023-01-01T07:05:48.338Z,4.92
2023-01-01T07:06:48.336Z,4.96
2023-01-01T07:07:48.307Z,4.96
2023-01-01T07:08:48.290Z,4.93
2023-01-01T07:09:48.291Z,4.93
2023-01-01T07:10:48.260Z,4.93
2023-01-01T07:11:48.248Z,4.93
2023-01-01T07:12:48.241Z,4.90
2023-01-01T07:13:48.237Z,4.89
2023-01-01T07:14:48.239Z,4.89
2023-01-01T07:15:48.336Z,4.86
2023-01-01T07:16:48.183Z,4.87
2023-01-01T07:17:48.170Z,4.82
2023-01-01T07:18:48.167Z,4.84
2023-01-01T07:19:48.148Z,4.86
2023-01-01T07:20:48.140Z,4.89
2023-01-01T07:21:48.135Z,4.92
2023-01-01T07:22:48.130Z,4.92
2023-01-01T07:23:48.102Z,4.92
2023-01-01T07:24:48.096Z,4.94
2023-01-01T07:25:48.068Z,4.94
2023-01-01T07:26:48.056Z,4.96
2023-01-01T07:27:48.050Z,4.97
2023-01-01T07:28:48.040Z,5.00
2023-01-01T07:29:48.015Z,5.04
2023-01-01T07:30:48.050Z,5.07
2023-01-01T07:31:48.000Z,5.07
2023-01-01T07:32:47.990Z,5.07
2023-01-01T07:33:47.978Z,5.10
2023-01-01T07:34:50.807Z,5.15
2023-01-01T07:35:47.947Z,5.20
2023-01-01T07:36:47.940Z,5.18
2023-01-01T07:37:47.923Z,5.23
2023-01-01T07:38:47.909Z,5.28
2023-01-01T07:39:47.920Z,5.29
2023-01-01T07:40:47.922Z,5.30
2023-01-01T07:41:47.879Z,5.33
2023-01-01T07:42:47.850Z,5.38
2023-01-01T07:43:47.837Z,5.44
2023-01-01T07:44:47.826Z,5.48
2023-01-01T07:45:47.811Z,5.53
2023-01-01T07:46:47.893Z,5.57
2023-01-01T07:47:47.789Z,5.62
2023-01-01T07:48:47.791Z,5.65
2023-01-01T07:49:47.770Z,5.71
2023-01-01T07:50:47.757Z,5.75
2023-01-01T07:51:47.738Z,5.82
2023-01-01T07:52:47.725Z,5.86
2023-01-01T07:53:47.716Z,5.91
2023-01-01T07:54:47.696Z,5.97
2023-01-01T07:55:47.708Z,5.94
2023-01-01T07:56:47.688Z,5.97
2023-01-01T07:57:47.671Z,5.89
2023-01-01T07:58:47.660Z,5.90
2023-01-01T07:59:47.647Z,5.89
2023-01-01T08:00:47.633Z,5.91
2023-01-01T08:01:47.796Z,5.91
2023-01-01T08:02:47.827Z,5.94
2023-01-01T08:03:47.585Z,5.97
2023-01-01T08:04:47.567Z,6.02
2023-01-01T08:05:47.555Z,6.07
2023-01-01T08:06:47.549Z,6.09
2023-01-01T08:07:47.529Z,6.09
2023-01-01T08:08:47.528Z,6.11
2023-01-01T08:09:47.514Z,6.12
2023-01-01T08:10:47.491Z,6.17
2023-01-01T08:11:47.480Z,6.24
2023-01-01T08:12:47.478Z,6.28
2023-01-01T08:13:47.482Z,6.31
2023-01-01T08:14:47.447Z,6.35
2023-01-01T08:15:47.473Z,6.39
2023-01-01T08:16:47.418Z,6.39
2023-01-01T08:17:47.623Z,6.44
2023-01-01T08:18:47.447Z,6.45
2023-01-01T08:19:47.384Z,6.46
2023-01-01T08:20:47.371Z,6.45
2023-01-01T08:21:47.356Z,6.45
2023-01-01T08:22:47.343Z,6.46
2023-01-01T08:23:47.336Z,6.51
2023-01-01T08:24:47.327Z,6.56
2023-01-01T08:25:47.313Z,6.56
2023-01-01T08:26:47.296Z,6.52
2023-01-01T08:27:47.283Z,6.59
2023-01-01T08:28:50.879Z,6.60
2023-01-01T08:29:48.287Z,6.60
2023-01-01T08:30:47.233Z,6.63
2023-01-01T08:31:47.244Z,6.66
2023-01-01T08:32:47.215Z,6.66
2023-01-01T08:33:47.203Z,6.69
2023-01-01T08:34:47.206Z,6.75
2023-01-01T08:35:53.668Z,6.77
2023-01-01T08:36:48.201Z,6.82
2023-01-01T08:37:47.148Z,6.88
2023-01-01T08:38:47.146Z,6.95
2023-01-01T08:39:47.123Z,7.00
2023-01-01T08:40:47.104Z,7.03
2023-01-01T08:41:47.092Z,7.10
2023-01-01T08:42:47.081Z,7.11
2023-01-01T08:43:47.078Z,7.14
2023-01-01T08:44:47.112Z,7.18
2023-01-01T08:45:47.050Z,7.29
2023-01-01T08:46:47.138Z,7.36
2023-01-01T08:47:47.033Z,7.42
2023-01-01T08:48:47.006Z,7.51
2023-01-01T08:49:46.994Z,7.58
2023-01-01T08:50:46.999Z,7.61
2023-01-01T08:51:46.968Z,7.72
2023-01-01T08:52:46.962Z,7.73
2023-01-01T08:53:50.788Z,7.70
2023-01-01T08:54:46.934Z,7.70
2023-01-01T08:55:46.915Z,7.73
2023-01-01T08:56:46.900Z,7.87
2023-01-01T08:57:46.888Z,7.98
2023-01-01T08:58:46.876Z,8.06
2023-01-01T08:59:46.876Z,8.16
2023-01-01T09:00:46.867Z,8.28
2023-01-01T09:01:47.013Z,8.49
2023-01-01T09:02:47.019Z,8.73
2023-01-01T09:03:46.832Z,8.91
2023-01-01T09:04:46.806Z,8.97
2023-01-01T09:05:46.788Z,9.14
2023-01-01T09:06:46.806Z,9.26
2023-01-01T09:07:46.765Z,9.31
2023-01-01T09:08:46.746Z,9.32
2023-01-01T09:09:46.732Z,9.34
2023-01-01T09:10:46.726Z,9.32
2023-01-01T09:11:46.714Z,9.32
2023-01-01T09:12:46.701Z,9.36
2023-01-01T09:13:46.685Z,9.31
2023-01-01T09:14:46.683Z,9.31
2023-01-01T09:15:46.782Z,9.25
2023-01-01T09:16:46.692Z,9.26
2023-01-01T09:17:46.643Z,9.22
2023-01-01T09:18:46.627Z,9.22
2023-01-01T09:19:46.600Z,9.21
2023-01-01T09:20:46.589Z,9.21
2023-01-01T09:21:46.596Z,9.23
2023-01-01T09:22:46.596Z,9.26
2023-01-01T09:23:46.555Z,9.28
2023-01-01T09:24:46.554Z,9.19
2023-01-01T09:25:46.534Z,9.18
2023-01-01T09:26:46.539Z,9.18
2023-01-01T09:27:46.519Z,9.13
2023-01-01T09:28:46.518Z,9.10
2023-01-01T09:29:46.492Z,9.10
2023-01-01T09:30:46.470Z,9.16
2023-01-01T09:31:46.480Z,9.18
2023-01-01T09:32:46.447Z,9.26
2023-01-01T09:33:46.435Z,9.32
2023-01-01T09:34:52.086Z,9.29
2023-01-01T09:35:47.432Z,9.31
2023-01-01T09:36:46.389Z,9.43
2023-01-01T09:37:46.369Z,9.46
2023-01-01T09:38:46.392Z,9.48
2023-01-01T09:39:46.361Z,9.54
2023-01-01T09:40:51.091Z,9.59
2023-01-01T09:41:46.331Z,9.64
2023-01-01T09:42:46.348Z,9.73
2023-01-01T09:43:46.296Z,9.80
2023-01-01T09:44:46.307Z,10.02
2023-01-01T09:45:46.299Z,10.42
2023-01-01T09:46:46.254Z,10.92
2023-01-01T09:47:46.268Z,11.36
2023-01-01T09:48:46.245Z,11.59
2023-01-01T09:49:46.222Z,11.94
2023-01-01T09:50:46.204Z,12.43
2023-01-01T09:51:52.468Z,12.97
2023-01-01T09:52:47.208Z,13.35
2023-01-01T09:53:46.184Z,13.56
2023-01-01T09:54:46.184Z,13.52
2023-01-01T09:55:46.143Z,13.23
2023-01-01T09:56:46.132Z,12.94
2023-01-01T09:57:46.132Z,12.72
2023-01-01T09:58:46.101Z,12.47
2023-01-01T09:59:46.088Z,12.42
2023-01-01T10:00:46.139Z,12.36
2023-01-01T10:01:46.166Z,12.40
2023-01-01T10:02:51.476Z,12.55
2023-01-01T10:03:47.090Z,12.94
2023-01-01T10:04:46.024Z,13.27
2023-01-01T10:05:46.013Z,13.39
2023-01-01T10:06:46.004Z,13.59
2023-01-01T10:07:46.007Z,13.54
2023-01-01T10:08:45.979Z,13.39
2023-01-01T10:09:45.969Z,13.08
2023-01-01T10:10:46.038Z,12.95
2023-01-01T10:11:45.942Z,12.90
2023-01-01T10:12:45.932Z,12.79
2023-01-01T10:13:45.917Z,12.65
2023-01-01T10:14:45.906Z,12.58
2023-01-01T10:15:45.893Z,12.55
2023-01-01T10:16:45.946Z,12.50
2023-01-01T10:17:45.872Z,12.47
2023-01-01T10:18:45.858Z,12.46
2023-01-01T10:19:45.845Z,12.46
2023-01-01T10:20:45.826Z,12.49
2023-01-01T10:21:47.456Z,12.54
2023-01-01T10:22:45.813Z,12.61
2023-01-01T10:23:45.789Z,12.70
2023-01-01T10:24:45.775Z,12.82
2023-01-01T10:25:45.765Z,13.01
2023-01-01T10:26:45.767Z,13.16
2023-01-01T10:27:45.731Z,13.16
2023-01-01T10:28:45.720Z,13.16
2023-01-01T10:29:45.741Z,13.11
2023-01-01T10:30:45.694Z,13.08
2023-01-01T10:31:45.780Z,13.09
2023-01-01T10:32:45.667Z,13.11
2023-01-01T10:33:45.669Z,13.05
2023-01-01T10:34:45.664Z,13.00
2023-01-01T10:35:45.647Z,13.11
2023-01-01T10:36:45.633Z,13.25
2023-01-01T10:37:45.625Z,13.41
2023-01-01T10:38:45.599Z,13.57
2023-01-01T10:39:45.592Z,13.77
2023-01-01T10:40:45.590Z,13.95
2023-01-01T10:41:45.579Z,13.97
2023-01-01T10:42:45.573Z,13.85
2023-01-01T10:43:45.535Z,13.75
2023-01-01T10:44:45.534Z,13.71
2023-01-01T10:45:45.541Z,13.57
2023-01-01T10:46:45.516Z,13.57
2023-01-01T10:47:45.490Z,13.70
2023-01-01T10:48:45.464Z,13.90
2023-01-01T10:49:45.458Z,13.90
2023-01-01T10:50:45.433Z,14.05
2023-01-01T10:51:45.424Z,14.08
2023-01-01T10:52:45.421Z,13.97
2023-01-01T10:53:45.423Z,13.92
2023-01-01T10:54:45.393Z,13.97
2023-01-01T10:55:45.387Z,13.90
2023-01-01T10:56:45.373Z,13.72
2023-01-01T10:57:45.368Z,13.75
2023-01-01T10:58:45.369Z,13.79
2023-01-01T10:59:51.718Z,13.68
2023-01-01T11:00:46.352Z,13.71
2023-01-01T11:01:45.517Z,13.78
2023-01-01T11:02:45.433Z,13.78
2023-01-01T11:03:45.287Z,13.74
2023-01-01T11:04:45.289Z,13.78
2023-01-01T11:05:45.251Z,13.67
2023-01-01T11:06:45.238Z,13.60
2023-01-01T11:07:45.241Z,13.41
2023-01-01T11:08:45.205Z,13.28
2023-01-01T11:10:01.961Z,13.19
2023-01-01T11:10:46.220Z,13.16
2023-01-01T11:11:45.195Z,13.13
2023-01-01T11:13:45.152Z,13.12
2023-01-01T11:14:45.163Z,13.03
2023-01-01T11:15:45.146Z,12.98
2023-01-01T11:16:45.125Z,12.93
2023-01-01T11:17:45.093Z,12.87
2023-01-01T11:18:45.098Z,12.94
2023-01-01T11:19:50.794Z,12.93
2023-01-01T11:20:46.092Z,12.98
2023-01-01T11:21:45.041Z,13.01
2023-01-01T11:22:45.052Z,13.08
2023-01-01T11:23:45.014Z,13.11
2023-01-01T11:24:45.018Z,13.18
2023-01-01T11:25:44.997Z,13.20
2023-01-01T11:26:50.586Z,13.19
2023-01-01T11:27:46.014Z,13.23
2023-01-01T11:28:44.953Z,13.30
2023-01-01T11:29:44.939Z,13.37
2023-01-01T11:30:45.003Z,13.39
2023-01-01T11:31:44.921Z,13.39
2023-01-01T11:32:48.137Z,13.46
2023-01-01T11:33:44.897Z,13.44
2023-01-01T11:34:44.883Z,13.50
2023-01-01T11:35:44.877Z,13.57
2023-01-01T11:36:44.850Z,13.63
2023-01-01T11:37:44.842Z,13.70
2023-01-01T11:38:44.823Z,13.68
2023-01-01T11:39:44.825Z,13.71
2023-01-01T11:40:44.805Z,13.75
2023-01-01T11:41:44.800Z,13.71
2023-01-01T11:42:44.773Z,13.68
2023-01-01T11:43:44.778Z,13.74
2023-01-01T11:44:44.759Z,13.60
2023-01-01T11:45:44.766Z,13.59
2023-01-01T11:46:44.756Z,13.62
2023-01-01T11:47:44.718Z,13.65
2023-01-01T11:48:44.715Z,13.67
2023-01-01T11:49:44.731Z,13.63
2023-01-01T11:50:48.999Z,13.53
2023-01-01T11:51:45.692Z,13.52
2023-01-01T11:52:44.673Z,13.41
2023-01-01T11:53:44.641Z,13.46
2023-01-01T11:54:44.618Z,13.49
2023-01-01T11:55:44.607Z,13.47
2023-01-01T11:56:44.594Z,13.47
2023-01-01T11:57:44.588Z,13.53
2023-01-01T11:58:44.593Z,13.47
2023-01-01T11:59:44.562Z,13.47
2023-01-01T12:00:44.556Z,13.47
2023-01-01T12:01:44.615Z,13.44
2023-01-01T12:02:44.594Z,13.44
2023-01-01T12:03:44.552Z,13.44
2023-01-01T12:04:44.499Z,13.47
2023-01-01T12:05:44.483Z,13.41
2023-01-01T12:06:44.471Z,13.37
2023-01-01T12:07:44.454Z,13.31
2023-01-01T12:08:44.444Z,13.27
2023-01-01T12:09:44.434Z,13.27
2023-01-01T12:10:44.414Z,13.30
2023-01-01T12:11:44.407Z,13.33
2023-01-01T12:12:44.389Z,13.27
2023-01-01T12:13:44.383Z,13.20
2023-01-01T12:14:44.372Z,13.22
2023-01-01T12:15:44.417Z,13.20
2023-01-01T12:16:44.363Z,13.23
2023-01-01T12:17:44.337Z,13.28
2023-01-01T12:18:44.354Z,13.27
2023-01-01T12:19:44.310Z,13.31
2023-01-01T12:20:44.285Z,13.31
2023-01-01T12:21:50.765Z,13.35
2023-01-01T12:22:45.298Z,13.37
2023-01-01T12:23:44.242Z,13.31
2023-01-01T12:24:44.233Z,13.35
2023-01-01T12:25:44.227Z,13.41
2023-01-01T12:26:44.225Z,13.28
2023-01-01T12:27:44.194Z,13.31
2023-01-01T12:28:44.238Z,13.35
2023-01-01T12:29:44.167Z,13.35
2023-01-01T12:30:44.176Z,13.39
2023-01-01T12:31:44.200Z,13.38
2023-01-01T12:32:44.128Z,13.42
2023-01-01T12:33:44.165Z,13.37
2023-01-01T12:34:44.227Z,13.41
2023-01-01T12:35:44.098Z,13.46
2023-01-01T12:36:44.079Z,13.42
2023-01-01T12:37:44.062Z,13.41
2023-01-01T12:38:44.069Z,13.38
2023-01-01T12:39:44.063Z,13.39
2023-01-01T12:40:44.036Z,13.41
2023-01-01T12:41:44.023Z,13.37
2023-01-01T12:42:44.008Z,13.38
2023-01-01T12:43:43.986Z,13.39
2023-01-01T12:44:43.983Z,13.33
2023-01-01T12:45:43.992Z,13.35
2023-01-01T12:46:44.012Z,13.31
2023-01-01T12:47:43.940Z,13.35
2023-01-01T12:48:43.921Z,13.35
2023-01-01T12:49:43.921Z,13.35
2023-01-01T12:50:49.563Z,13.33
2023-01-01T12:51:44.921Z,13.33
2023-01-01T12:52:43.874Z,13.35
2023-01-01T12:53:43.859Z,13.38
2023-01-01T12:54:43.852Z,13.41
2023-01-01T12:55:43.838Z,13.41
2023-01-01T12:56:43.817Z,13.39
2023-01-01T12:57:43.877Z,13.44
2023-01-01T12:58:43.800Z,13.42
2023-01-01T12:59:43.790Z,13.47
2023-01-01T13:00:43.792Z,13.50
2023-01-01T13:01:43.848Z,13.49
2023-01-01T13:02:43.877Z,13.52
2023-01-01T13:03:43.779Z,13.53
2023-01-01T13:04:43.723Z,13.54
2023-01-01T13:05:43.714Z,13.56
2023-01-01T13:06:43.728Z,13.54
2023-01-01T13:07:43.683Z,13.56
2023-01-01T13:08:43.669Z,13.59
2023-01-01T13:09:43.654Z,13.57
2023-01-01T13:10:43.646Z,13.59
2023-01-01T13:11:45.412Z,13.56
2023-01-01T13:12:43.614Z,13.53
2023-01-01T13:13:43.608Z,13.54